Antonios — SY8410 — position and weather

sailwx.info

Track history (hours):
 
Tides and Currents Weather Stations Pressure Air Temp Water Temp Dewpoint Dewpoint Depression Visibility Wind Speed Wind Dir Waves Ship Positions

Antonios

Last reported at 2014-Nov-21 16:33 UTC. Time now 2014-Nov-28 05:51 UTC.
Position N 37°05' E 026°19'.

Length 57 m; draft 2.9 m.

Type: Tanker. MMSI: 239191300.

Date/timePositionNaut miles runAvg speedWind from/ knotsBaromVisibWave heightAir tempDewpointWater temp
2014-Nov-21 16:33N 37°05' E 026°19'9 9.5
2014-Nov-21 15:33N 37°08' E 026°07'10 9.4
2014-Nov-21 14:33N 37°11' E 025°56'9 9.1
2014-Nov-21 13:33N 37°15' E 025°46'9 8.6
2014-Nov-21 12:33N 37°17' E 025°35'9 9.1
2014-Nov-21 11:33N 37°19' E 025°24'9 9.0
2014-Nov-21 10:33N 37°20' E 025°13'9 8.9
2014-Nov-21 09:33N 37°21' E 025°02'9 8.9
2014-Nov-21 08:33N 37°22' E 024°51'9 9.0
2014-Nov-21 07:33N 37°25' E 024°40'9 9.5
2014-Nov-21 06:33N 37°29' E 024°29'9 9.1
2014-Nov-21 05:33N 37°31' E 024°18'9 8.8
2014-Nov-21 04:30N 37°32' E 024°06'19 9.6
2014-Nov-21 02:32N 37°39' E 023°44'10 9.8
2014-Nov-21 01:33N 37°47' E 023°38'9 9.2
2014-Nov-21 00:33N 37°50' E 023°27'12 9.5
2014-Nov-20 23:21N 37°53' E 023°13'6 8.0
2014-Nov-20 22:33N 37°55' E 023°05'0 0.0
2014-Nov-20 21:33N 37°55' E 023°05'0 0.0
2014-Nov-20 20:33N 37°55' E 023°05'0 0.0
2014-Nov-20 19:33N 37°55' E 023°05'0 0.0
2014-Nov-20 18:33N 37°55' E 023°05'0 0.0
2014-Nov-20 17:33N 37°55' E 023°05'0 0.0
2014-Nov-20 16:33N 37°55' E 023°05'0 0.0
2014-Nov-20 15:33N 37°55' E 023°05'1 0.5
2014-Nov-20 14:33N 37°55' E 023°06'4 4.0
2014-Nov-20 13:33N 37°54' E 023°11'1010.1
2014-Nov-20 12:33N 37°52' E 023°23'1010.1
2014-Nov-20 11:33N 37°50' E 023°36'9 8.9
2014-Nov-20 10:33N 37°43' E 023°43'9 8.8
2014-Nov-20 09:30N 37°38' E 023°52'9 9.3
2014-Nov-20 08:32N 37°35' E 024°03'9 9.5
2014-Nov-20 07:32N 37°31' E 024°14'9 9.0
2014-Nov-20 06:33N 37°30' E 024°25'9 8.7
2014-Nov-20 05:33N 37°26' E 024°35'9 9.1
2014-Nov-20 04:33N 37°21' E 024°45'9 8.8
2014-Nov-20 03:33N 37°18' E 024°55'9 8.8
2014-Nov-20 02:33N 37°17' E 025°06'8 8.2
2014-Nov-20 01:33N 37°16' E 025°17'9 8.5
2014-Nov-20 00:33N 37°14' E 025°27'9 8.7
2014-Nov-19 23:31N 37°12' E 025°38'9 9.3
2014-Nov-19 22:33N 37°10' E 025°49'9 9.1
2014-Nov-19 21:33N 37°04' E 025°58'9 8.7
2014-Nov-19 20:33N 37°02' E 026°08'9 9.3
2014-Nov-19 19:33N 37°03' E 026°20'11 9.6
2014-Nov-19 18:27N 37°00' E 026°33'11 9.7
2014-Nov-19 17:21N 36°53' E 026°43'16 0.9
2014-Nov-18 23:31N 37°03' E 026°27'9 9.3
2014-Nov-18 22:33N 37°05' E 026°16'10 9.6
2014-Nov-18 21:33N 37°07' E 026°05'10 9.8
2014-Nov-18 20:33N 37°09' E 025°53'10 9.7
2014-Nov-18 19:33N 37°12' E 025°41'10 9.7
2014-Nov-18 18:33N 37°14' E 025°29'9 9.4
2014-Nov-18 17:33N 37°16' E 025°18'9 9.1
2014-Nov-18 16:33N 37°19' E 025°07'9 9.3
2014-Nov-18 15:33N 37°21' E 024°55'9 9.4
2014-Nov-18 14:33N 37°24' E 024°44'1010.0
2014-Nov-18 13:33N 37°28' E 024°32'11 9.5
2014-Nov-18 12:23N 37°30' E 024°19'7 8.9
2014-Nov-18 11:33N 37°32' E 024°10'20 9.5
2014-Nov-18 09:26N 37°39' E 023°46'8 9.5
2014-Nov-18 08:33N 37°45' E 023°39'9 9.0
2014-Nov-18 07:33N 37°50' E 023°30'10 9.6
2014-Nov-18 06:33N 37°52' E 023°18'9 9.3
2014-Nov-18 05:33N 37°55' E 023°06'1 0.2
2014-Nov-18 01:33N 37°55' E 023°05'0 0.0
2014-Nov-18 00:33N 37°55' E 023°05'1 0.6
2014-Nov-17 23:32N 37°55' E 023°06'10 9.8
2014-Nov-17 22:33N 37°53' E 023°18'1010.5
2014-Nov-17 21:33N 37°50' E 023°31'9 8.9
2014-Nov-17 20:33N 37°47' E 023°41'10 9.7
2014-Nov-17 19:33N 37°39' E 023°49'9 9.5
2014-Nov-17 18:33N 37°35' E 023°60'10 9.7
2014-Nov-17 17:33N 37°32' E 024°11'9 9.3
2014-Nov-17 16:33N 37°30' E 024°23'9 9.3
2014-Nov-17 15:33N 37°26' E 024°33'9 8.9
2014-Nov-17 14:33N 37°24' E 024°44'10 9.6
2014-Nov-17 13:33N 37°19' E 024°55'10 9.9
2014-Nov-17 12:33N 37°18' E 025°07'1010.3
2014-Nov-17 11:33N 37°16' E 025°20'1010.2
2014-Nov-17 10:33N 37°14' E 025°32'1010.2
2014-Nov-17 09:33N 37°12' E 025°45'1010.2
2014-Nov-17 08:33N 37°09' E 025°57'1010.3
2014-Nov-17 07:33N 37°07' E 026°09'1010.2
2014-Nov-17 06:33N 37°04' E 026°22'  
Track history (hours):
 
Tides and Currents Weather Stations Pressure Air Temp Water Temp Dewpoint Dewpoint Depression Visibility Wind Speed Wind Dir Waves Ship Positions

Antonios

Last reported at 2014-Nov-21 16:33 UTC. Time now 2014-Nov-28 05:51 UTC.
Position N 37°05' E 026°19'.

Length 57 m; draft 2.9 m.

Type: Tanker. MMSI: 239191300.

Date/timePositionNaut miles runAvg speedWind from/ knotsBaromVisibWave heightAir tempDewpointWater temp
2014-Nov-21 16:33N 37°05' E 026°19'9 9.5
2014-Nov-21 15:33N 37°08' E 026°07'10 9.4
2014-Nov-21 14:33N 37°11' E 025°56'9 9.1
2014-Nov-21 13:33N 37°15' E 025°46'9 8.6
2014-Nov-21 12:33N 37°17' E 025°35'9 9.1
2014-Nov-21 11:33N 37°19' E 025°24'9 9.0
2014-Nov-21 10:33N 37°20' E 025°13'9 8.9
2014-Nov-21 09:33N 37°21' E 025°02'9 8.9
2014-Nov-21 08:33N 37°22' E 024°51'9 9.0
2014-Nov-21 07:33N 37°25' E 024°40'9 9.5
2014-Nov-21 06:33N 37°29' E 024°29'9 9.1
2014-Nov-21 05:33N 37°31' E 024°18'9 8.8
2014-Nov-21 04:30N 37°32' E 024°06'19 9.6
2014-Nov-21 02:32N 37°39' E 023°44'10 9.8
2014-Nov-21 01:33N 37°47' E 023°38'9 9.2
2014-Nov-21 00:33N 37°50' E 023°27'12 9.5
2014-Nov-20 23:21N 37°53' E 023°13'6 8.0
2014-Nov-20 22:33N 37°55' E 023°05'0 0.0
2014-Nov-20 21:33N 37°55' E 023°05'0 0.0
2014-Nov-20 20:33N 37°55' E 023°05'0 0.0
2014-Nov-20 19:33N 37°55' E 023°05'0 0.0
2014-Nov-20 18:33N 37°55' E 023°05'0 0.0
2014-Nov-20 17:33N 37°55' E 023°05'0 0.0
2014-Nov-20 16:33N 37°55' E 023°05'0 0.0
2014-Nov-20 15:33N 37°55' E 023°05'1 0.5
2014-Nov-20 14:33N 37°55' E 023°06'4 4.0
2014-Nov-20 13:33N 37°54' E 023°11'1010.1
2014-Nov-20 12:33N 37°52' E 023°23'1010.1
2014-Nov-20 11:33N 37°50' E 023°36'9 8.9
2014-Nov-20 10:33N 37°43' E 023°43'9 8.8
2014-Nov-20 09:30N 37°38' E 023°52'9 9.3
2014-Nov-20 08:32N 37°35' E 024°03'9 9.5
2014-Nov-20 07:32N 37°31' E 024°14'9 9.0
2014-Nov-20 06:33N 37°30' E 024°25'9 8.7
2014-Nov-20 05:33N 37°26' E 024°35'9 9.1
2014-Nov-20 04:33N 37°21' E 024°45'9 8.8
2014-Nov-20 03:33N 37°18' E 024°55'9 8.8
2014-Nov-20 02:33N 37°17' E 025°06'8 8.2
2014-Nov-20 01:33N 37°16' E 025°17'9 8.5
2014-Nov-20 00:33N 37°14' E 025°27'9 8.7
2014-Nov-19 23:31N 37°12' E 025°38'9 9.3
2014-Nov-19 22:33N 37°10' E 025°49'9 9.1
2014-Nov-19 21:33N 37°04' E 025°58'9 8.7
2014-Nov-19 20:33N 37°02' E 026°08'9 9.3
2014-Nov-19 19:33N 37°03' E 026°20'11 9.6
2014-Nov-19 18:27N 37°00' E 026°33'11 9.7
2014-Nov-19 17:21N 36°53' E 026°43'16 0.9
2014-Nov-18 23:31N 37°03' E 026°27'9 9.3
2014-Nov-18 22:33N 37°05' E 026°16'10 9.6
2014-Nov-18 21:33N 37°07' E 026°05'10 9.8
2014-Nov-18 20:33N 37°09' E 025°53'10 9.7
2014-Nov-18 19:33N 37°12' E 025°41'10 9.7
2014-Nov-18 18:33N 37°14' E 025°29'9 9.4
2014-Nov-18 17:33N 37°16' E 025°18'9 9.1
2014-Nov-18 16:33N 37°19' E 025°07'9 9.3
2014-Nov-18 15:33N 37°21' E 024°55'9 9.4
2014-Nov-18 14:33N 37°24' E 024°44'1010.0
2014-Nov-18 13:33N 37°28' E 024°32'11 9.5
2014-Nov-18 12:23N 37°30' E 024°19'7 8.9
2014-Nov-18 11:33N 37°32' E 024°10'20 9.5
2014-Nov-18 09:26N 37°39' E 023°46'8 9.5
2014-Nov-18 08:33N 37°45' E 023°39'9 9.0
2014-Nov-18 07:33N 37°50' E 023°30'10 9.6
2014-Nov-18 06:33N 37°52' E 023°18'9 9.3
2014-Nov-18 05:33N 37°55' E 023°06'1 0.2
2014-Nov-18 01:33N 37°55' E 023°05'0 0.0
2014-Nov-18 00:33N 37°55' E 023°05'1 0.6
2014-Nov-17 23:32N 37°55' E 023°06'10 9.8
2014-Nov-17 22:33N 37°53' E 023°18'1010.5
2014-Nov-17 21:33N 37°50' E 023°31'9 8.9
2014-Nov-17 20:33N 37°47' E 023°41'10 9.7
2014-Nov-17 19:33N 37°39' E 023°49'9 9.5
2014-Nov-17 18:33N 37°35' E 023°60'10 9.7
2014-Nov-17 17:33N 37°32' E 024°11'9 9.3
2014-Nov-17 16:33N 37°30' E 024°23'9 9.3
2014-Nov-17 15:33N 37°26' E 024°33'9 8.9
2014-Nov-17 14:33N 37°24' E 024°44'10 9.6
2014-Nov-17 13:33N 37°19' E 024°55'10 9.9
2014-Nov-17 12:33N 37°18' E 025°07'1010.3
2014-Nov-17 11:33N 37°16' E 025°20'1010.2
2014-Nov-17 10:33N 37°14' E 025°32'1010.2
2014-Nov-17 09:33N 37°12' E 025°45'1010.2
2014-Nov-17 08:33N 37°09' E 025°57'1010.3
2014-Nov-17 07:33N 37°07' E 026°09'1010.2
2014-Nov-17 06:33N 37°04' E 026°22'  

Dump ship's entire track history